Strasbourg, France

9:34 AM CEST on September 03, 2014 (GMT +0200)
Entzheim | Change Station
CLOSE
Current Station
Airport
Location: Strasbourg,
Elevation: 505 ft
Nearby Weather Stations

Elev 505 ft 48.55 °N, 7.64 °E | Updated 4 minutes ago

Overcast
Overcast
61 °F
Feels Like 61 °F
N
15
Wind Variable Wind from NNE

Today
High -- | Low -- °F
--% Chance of Precip.
Yesterday
High -- | Low -- °F
Precip. -- in
6:49 AM 8:07 PM
First Quarter, 59% visible
Pressure 30.09 in
Visibility 6.2 miles
Clouds Mostly Cloudy 1200 ft
Overcast 4500 ft
Dew Point 57 °F
Humidity 88%
Rainfall 0.00 in
Snow Depth Not available.
UV 1 out of 12
Pollen Not available.
Air Quality Not available.
Flu Activity Not available.
METAR LFST 030730Z AUTO 03013KT 9999 BKN012 OVC045 16/14 Q1019

More Conditions Fewer Conditions

Pressure 30.09 in
Visibility 6.2 miles
Clouds Mostly Cloudy 1200 ft
Overcast 4500 ft
Dew Point 57 °F
Humidity 88%
Rainfall 0.00 in
Snow Depth Not available.
UV 1 out of 12
Pollen Not available.
Air Quality Not available.
Flu Activity Not available.
METAR LFST 030730Z AUTO 03013KT 9999 BKN012 OVC045 16/14 Q1019

More Conditions Fewer Conditions

10-Day Weather Forecast

Almanac

Astronomy

Sep. 03, 2014 Rise Set
Actual Time 6:49 AM CEST 8:07 PM CEST
Civil Twilight 6:16 AM CEST 8:39 PM CEST
Nautical Twilight 5:37 AM CEST 9:19 PM CEST
Astronomical Twilight 4:55 AM CEST 10:01 PM CEST
Moon 3:49 PM CEST 12:13 AM CEST
Length of Visible Light 14h 23m
Length of Day
13h 18m
Tomorrow will be 3m 27s shorter.
First Quarter, 59% of the Moon is Illuminated
Today
First Quarter
Sep 8
Full
Sep 15
Last Quarter
Sep 24
New
Oct 1
First Quarter

Yesterday's Extremes

Country Highs Country Lows

Community

WunderPhotos

Upload Photos

1,749,891 photos uploaded!

Nearby

Snow Depth

Not available.

Earthquake Activity

City Distance Mag. Time & Date
No recent earthquake activity has been reported nearby.
Minimum magnitude displayed is 2.5.

Coastal Water Temperatures

Place Temperature
No Stations Reporting

Nearby Weather Stations